createdAt,value
2022-08-01T00:00:21.434Z,59.27734375
2022-08-01T00:01:22.249Z,59.47875977
2022-08-01T00:02:23.066Z,59.27734375
2022-08-01T00:03:24.333Z,59.27734375
2022-08-01T00:04:25.165Z,59.27734375
2022-08-01T00:05:26.066Z,59.38110352
2022-08-01T00:06:26.876Z,59.1796875
2022-08-01T00:07:27.626Z,59.47875977
2022-08-01T00:08:28.428Z,59.57641602
2022-08-01T00:09:30.000Z,59.77783203
2022-08-01T00:10:30.894Z,59.87548828
2022-08-01T00:11:31.711Z,59.57641602
2022-08-01T00:12:32.414Z,59.38110352
2022-08-01T00:13:33.218Z,59.50927734
2022-08-01T00:14:34.075Z,59.90600586
2022-08-01T00:15:34.995Z,60.40649414
2022-08-01T00:16:35.791Z,60.80322266
2022-08-01T00:18:06.951Z,60.60791016
2022-08-01T00:19:07.800Z,60.60791016
2022-08-01T00:20:09.457Z,60.70556641
2022-08-01T00:21:10.372Z,60.80322266
2022-08-01T00:22:11.146Z,61.10229492
2022-08-01T00:23:12.169Z,61.00463867
2022-08-01T00:24:14.316Z,61.00463867
2022-08-01T00:25:13.755Z,61.30371094
2022-08-01T00:26:14.660Z,61.20605469
2022-08-01T00:27:15.420Z,61.4074707
2022-08-01T00:28:16.808Z,61.50512695
2022-08-01T00:30:04.685Z,60.80322266
2022-08-01T00:30:18.941Z,61.20605469
2022-08-01T00:31:19.809Z,61.10229492
2022-08-01T00:32:20.651Z,61.10229492
2022-08-01T00:33:21.373Z,60.90698242
2022-08-01T00:34:22.976Z,60.80322266
2022-08-01T00:35:23.822Z,60.50415039
2022-08-01T00:36:24.660Z,60.40649414
2022-08-01T00:37:25.531Z,60.50415039
2022-08-01T00:38:26.237Z,60.80322266
2022-08-01T00:39:26.955Z,60.40649414
2022-08-01T00:40:28.396Z,60.30883789
2022-08-01T00:41:29.226Z,60.60791016
2022-08-01T00:42:29.970Z,60.70556641
2022-08-01T00:43:30.682Z,60.70556641
2022-08-01T00:44:31.414Z,60.30883789
2022-08-01T00:45:32.226Z,59.80834961
2022-08-01T00:46:33.045Z,59.90600586
2022-08-01T00:47:33.838Z,60.30883789
2022-08-01T00:48:34.615Z,60.60791016
2022-08-01T00:49:36.080Z,60.50415039
2022-08-01T00:51:07.937Z,60.30883789
2022-08-01T00:52:09.012Z,60.40649414
2022-08-01T00:53:09.604Z,60.50415039
2022-08-01T00:54:10.359Z,60.60791016
2022-08-01T00:55:15.074Z,61.1328125
2022-08-01T00:56:12.265Z,61.33422852
2022-08-01T00:57:13.118Z,61.33422852
2022-08-01T00:58:13.874Z,61.33422852
2022-08-01T00:59:14.876Z,61.63330078
2022-08-01T01:00:16.377Z,61.63330078
2022-08-01T01:01:17.307Z,61.73095703
2022-08-01T01:02:18.145Z,61.73095703
2022-08-01T01:03:18.934Z,61.8347168
2022-08-01T01:04:20.502Z,61.8347168
2022-08-01T01:05:21.250Z,61.53564453
2022-08-01T01:06:22.101Z,61.43188477
2022-08-01T01:07:23.005Z,61.73095703
2022-08-01T01:08:23.812Z,61.73095703
2022-08-01T01:09:24.561Z,61.8347168
2022-08-01T01:10:25.945Z,61.8347168
2022-08-01T01:11:26.778Z,62.13378906
2022-08-01T01:12:27.684Z,62.56103516
2022-08-01T01:13:28.463Z,62.66479492
2022-08-01T01:14:29.336Z,62.53051758
2022-08-01T01:15:29.952Z,62.43286133
2022-08-01T01:16:30.780Z,62.33520508
2022-08-01T01:17:50.990Z,62.13378906
2022-08-01T01:18:32.456Z,61.93237305
2022-08-01T01:19:33.185Z,62.16430664
2022-08-01T01:20:34.898Z,62.46337891
2022-08-01T01:22:06.602Z,62.76245117
2022-08-01T01:23:07.157Z,62.66479492
2022-08-01T01:24:07.834Z,62.36572266
2022-08-01T01:25:08.574Z,62.26196289
2022-08-01T01:26:09.386Z,62.96386719
2022-08-01T01:27:10.236Z,62.96386719
2022-08-01T01:28:11.403Z,62.76245117
2022-08-01T01:29:12.140Z,62.66479492
2022-08-01T01:30:13.503Z,62.76245117
2022-08-01T01:31:14.344Z,62.56103516
2022-08-01T01:32:15.195Z,62.56103516
2022-08-01T01:33:16.052Z,62.26196289
2022-08-01T01:34:17.499Z,62.26196289
2022-08-01T01:35:18.242Z,62.16430664
2022-08-01T01:36:19.030Z,62.46337891
2022-08-01T01:37:19.842Z,62.76245117
2022-08-01T01:38:20.758Z,62.86010742
2022-08-01T01:39:21.486Z,62.86010742
2022-08-01T01:40:22.991Z,62.46337891
2022-08-01T01:41:23.820Z,62.56103516
2022-08-01T01:42:24.682Z,62.66479492
2022-08-01T01:43:28.726Z,62.66479492
2022-08-01T01:44:26.332Z,62.26196289
2022-08-01T01:45:27.089Z,62.16430664
2022-08-01T01:46:27.887Z,61.96289063
2022-08-01T01:47:28.734Z,61.66381836
2022-08-01T01:48:29.593Z,61.96289063
2022-08-01T01:49:30.378Z,61.96289063
2022-08-01T01:50:31.869Z,62.36572266
2022-08-01T01:51:32.724Z,62.26196289
2022-08-01T01:52:34.441Z,62.46337891
2022-08-01T01:54:06.039Z,62.66479492
2022-08-01T01:55:06.729Z,62.36572266
2022-08-01T01:56:07.438Z,62.06054688
2022-08-01T01:57:08.280Z,62.16430664
2022-08-01T01:58:09.146Z,62.36572266
2022-08-01T01:59:09.973Z,62.26196289
2022-08-01T02:00:11.913Z,62.16430664
2022-08-01T02:01:14.765Z,62.06054688
2022-08-01T02:02:13.561Z,62.26196289
2022-08-01T02:03:14.090Z,61.86523438
2022-08-01T02:04:15.550Z,61.66381836
2022-08-01T02:05:16.264Z,61.86523438
2022-08-01T02:06:16.992Z,62.06054688
2022-08-01T02:07:17.839Z,61.96289063
2022-08-01T02:08:18.639Z,61.96289063
2022-08-01T02:09:20.430Z,61.96289063
2022-08-01T02:10:22.029Z,62.09106445
2022-08-01T02:11:22.730Z,62.29248047
2022-08-01T02:12:23.537Z,62.49389648
2022-08-01T02:13:24.360Z,62.49389648
2022-08-01T02:14:25.190Z,62.79296875
2022-08-01T02:15:26.026Z,62.79296875
2022-08-01T02:16:26.554Z,63.09204102
2022-08-01T02:17:27.370Z,63.18969727
2022-08-01T02:18:28.165Z,63.09204102
2022-08-01T02:19:28.993Z,63.32397461
2022-08-01T02:20:30.350Z,63.52539063
2022-08-01T02:21:31.918Z,63.92211914
2022-08-01T02:22:32.693Z,64.12353516
2022-08-01T02:23:33.544Z,64.22119141
2022-08-01T02:24:34.874Z,64.32495117
2022-08-01T02:26:09.238Z,64.02587891
2022-08-01T02:27:06.730Z,63.72070313
2022-08-01T02:28:07.567Z,63.92211914
2022-08-01T02:29:09.002Z,63.82446289
2022-08-01T02:30:10.475Z,63.62304688
2022-08-01T02:31:11.904Z,63.42163086
2022-08-01T02:32:12.711Z,63.32397461
2022-08-01T02:33:15.710Z,63.52539063
2022-08-01T02:34:14.958Z,63.72070313
2022-08-01T02:35:15.760Z,63.52539063
2022-08-01T02:36:31.205Z,63.62304688
2022-08-01T02:37:17.262Z,63.42163086
2022-08-01T02:38:18.136Z,63.32397461
2022-08-01T02:39:18.942Z,63.82446289
2022-08-01T02:40:20.550Z,64.22119141
2022-08-01T02:41:21.264Z,64.12353516
2022-08-01T02:42:22.901Z,64.12353516
2022-08-01T02:43:23.736Z,63.72070313
2022-08-01T02:44:24.606Z,63.72070313
2022-08-01T02:45:25.493Z,63.62304688
2022-08-01T02:46:26.270Z,63.72070313
2022-08-01T02:47:27.027Z,64.22119141
2022-08-01T02:48:27.866Z,64.62402344
2022-08-01T02:49:28.745Z,64.82543945
2022-08-01T02:50:30.539Z,64.82543945
2022-08-01T02:51:31.297Z,64.52026367
2022-08-01T02:52:32.064Z,64.22119141
2022-08-01T02:53:39.109Z,64.02587891
2022-08-01T02:54:33.760Z,63.82446289
2022-08-01T02:56:05.168Z,63.82446289
2022-08-01T02:57:06.687Z,63.92211914
2022-08-01T02:58:07.369Z,63.92211914
2022-08-01T02:59:08.236Z,63.52539063
2022-08-01T03:00:09.108Z,63.72070313
2022-08-01T03:01:11.079Z,63.92211914
2022-08-01T03:02:11.972Z,63.62304688
2022-08-01T03:03:12.681Z,63.72070313
2022-08-01T03:04:14.486Z,63.72070313
2022-08-01T03:05:15.321Z,63.65356445
2022-08-01T03:06:16.159Z,63.85498047
2022-08-01T03:07:16.921Z,63.95263672
2022-08-01T03:08:17.686Z,63.85498047
2022-08-01T03:09:18.556Z,63.95263672
2022-08-01T03:10:19.354Z,63.95263672
2022-08-01T03:11:21.049Z,64.05639648
2022-08-01T03:12:21.797Z,64.35546875
2022-08-01T03:13:22.512Z,64.35546875
2022-08-01T03:14:23.339Z,64.453125
2022-08-01T03:15:24.178Z,64.25170898
2022-08-01T03:16:25.033Z,64.55078125
2022-08-01T03:17:25.807Z,65.05126953
2022-08-01T03:18:26.567Z,65.35644531
2022-08-01T03:19:27.376Z,65.05126953
2022-08-01T03:20:28.238Z,64.75219727
2022-08-01T03:21:29.969Z,64.75219727
2022-08-01T03:22:30.767Z,65.05126953
2022-08-01T03:23:37.950Z,64.95361328
2022-08-01T03:24:32.279Z,64.65454102
2022-08-01T03:25:33.108Z,64.85595703
2022-08-01T03:27:04.827Z,64.35546875
2022-08-01T03:28:05.531Z,63.72070313
2022-08-01T03:29:07.063Z,63.5559082
2022-08-01T03:30:07.875Z,63.35449219
2022-08-01T03:31:09.552Z,63.5559082
2022-08-01T03:32:10.453Z,63.95263672
2022-08-01T03:33:14.611Z,64.05639648
2022-08-01T03:34:12.173Z,64.05639648
2022-08-01T03:35:13.987Z,63.95263672
2022-08-01T03:36:14.823Z,64.25170898
2022-08-01T03:37:15.710Z,64.55078125
2022-08-01T03:38:16.780Z,64.65454102
2022-08-01T03:39:17.214Z,64.65454102
2022-08-01T03:40:18.024Z,63.5559082
2022-08-01T03:41:19.427Z,63.5559082
2022-08-01T03:42:20.270Z,63.65356445
2022-08-01T03:43:20.994Z,63.7512207
2022-08-01T03:44:21.738Z,63.7512207
2022-08-01T03:45:22.535Z,63.95263672
2022-08-01T03:46:25.315Z,63.85498047
2022-08-01T03:47:24.251Z,64.05639648
2022-08-01T03:48:25.426Z,64.48364258
2022-08-01T03:49:26.346Z,64.48364258
2022-08-01T03:50:27.018Z,64.38598633
2022-08-01T03:51:28.424Z,64.18457031
2022-08-01T03:52:29.199Z,64.08691406
2022-08-01T03:53:29.965Z,64.28222656
2022-08-01T03:54:30.733Z,64.25170898
2022-08-01T03:55:31.481Z,64.05639648
2022-08-01T03:56:32.244Z,64.05639648
2022-08-01T03:57:35.657Z,64.25170898
2022-08-01T03:59:04.239Z,64.453125
2022-08-01T04:00:04.987Z,64.35546875
2022-08-01T04:01:06.583Z,64.453125
2022-08-01T04:02:07.772Z,64.55078125
2022-08-01T04:03:08.095Z,64.58740234
2022-08-01T04:04:08.851Z,64.85595703
2022-08-01T04:05:10.393Z,64.38598633
2022-08-01T04:06:11.259Z,64.08691406
2022-08-01T04:07:12.194Z,64.08691406
2022-08-01T04:08:12.983Z,64.08691406
2022-08-01T04:09:14.001Z,64.48364258
2022-08-01T04:10:14.403Z,64.68505859
2022-08-01T04:11:16.022Z,64.38598633
2022-08-01T04:12:16.807Z,64.28222656
2022-08-01T04:13:17.604Z,64.48364258
2022-08-01T04:14:18.377Z,64.68505859
2022-08-01T04:15:19.132Z,64.68505859
2022-08-01T04:16:19.876Z,64.78271484
2022-08-01T04:17:20.611Z,64.78271484
2022-08-01T04:18:21.422Z,64.65454102
2022-08-01T04:19:22.147Z,64.78271484
2022-08-01T04:20:22.925Z,64.88647461
2022-08-01T04:21:24.561Z,65.08789063
2022-08-01T04:22:25.321Z,64.88647461
2022-08-01T04:23:26.282Z,64.58740234
2022-08-01T04:24:27.012Z,64.35546875
2022-08-01T04:25:27.757Z,63.95263672
2022-08-01T04:26:28.503Z,63.78173828
2022-08-01T04:27:50.393Z,63.68408203
2022-08-01T04:28:30.056Z,63.78173828
2022-08-01T04:29:30.786Z,64.18457031
2022-08-01T04:30:31.580Z,64.18457031
2022-08-01T04:31:33.371Z,64.28222656
2022-08-01T04:33:05.496Z,63.9831543
2022-08-01T04:34:06.157Z,63.88549805
2022-08-01T04:35:23.574Z,64.08691406
2022-08-01T04:36:07.704Z,64.28222656
2022-08-01T04:37:09.053Z,64.18457031
2022-08-01T04:38:09.840Z,64.18457031
2022-08-01T04:39:10.693Z,64.18457031
2022-08-01T04:40:41.597Z,64.28222656
2022-08-01T04:42:13.295Z,64.81323242
2022-08-01T04:43:15.113Z,64.81323242
2022-08-01T04:44:14.817Z,65.21606445
2022-08-01T04:45:15.527Z,65.3137207
2022-08-01T04:46:16.296Z,64.81323242
2022-08-01T04:47:17.066Z,64.81323242
2022-08-01T04:48:17.864Z,64.71557617
2022-08-01T04:49:18.714Z,65.01464844
2022-08-01T04:50:19.363Z,64.88647461
2022-08-01T04:51:21.034Z,64.48364258
2022-08-01T04:52:24.685Z,64.18457031
2022-08-01T04:53:22.575Z,63.9831543
2022-08-01T04:54:23.436Z,64.48364258
2022-08-01T04:55:24.157Z,64.48364258
2022-08-01T04:56:24.908Z,64.88647461
2022-08-01T04:57:25.636Z,64.98413086
2022-08-01T04:58:26.459Z,64.58740234
2022-08-01T04:59:27.240Z,64.28222656
2022-08-01T05:00:28.023Z,64.48364258
2022-08-01T05:01:29.659Z,64.28222656
2022-08-01T05:02:30.360Z,64.08691406
2022-08-01T05:03:35.866Z,63.28125
2022-08-01T05:05:03.657Z,63.48266602
2022-08-01T05:06:04.378Z,63.48266602
2022-08-01T05:07:05.190Z,63.68408203
2022-08-01T05:08:05.987Z,63.68408203
2022-08-01T05:09:06.754Z,63.68408203
2022-08-01T05:10:07.541Z,63.48266602
2022-08-01T05:11:09.052Z,63.45214844
2022-08-01T05:12:09.831Z,63.25073242
2022-08-01T05:13:11.703Z,63.05541992
2022-08-01T05:14:12.521Z,62.95166016
2022-08-01T05:15:15.428Z,62.95166016
2022-08-01T05:16:14.040Z,62.95166016
2022-08-01T05:17:14.830Z,62.95166016
2022-08-01T05:18:15.592Z,63.05541992
2022-08-01T05:19:16.342Z,63.25073242
2022-08-01T05:20:17.147Z,63.35449219
2022-08-01T05:21:17.884Z,63.15307617
2022-08-01T05:22:19.450Z,62.95166016
2022-08-01T05:23:42.046Z,63.05541992
2022-08-01T05:24:21.029Z,62.95166016
2022-08-01T05:25:55.975Z,62.65258789
2022-08-01T05:26:22.568Z,62.82348633
2022-08-01T05:27:23.413Z,62.52441406
2022-08-01T05:28:24.205Z,62.52441406
2022-08-01T05:29:24.949Z,62.52441406
2022-08-01T05:30:26.619Z,62.32299805
2022-08-01T05:31:27.350Z,62.21923828
2022-08-01T05:32:28.946Z,62.32299805
2022-08-01T05:33:29.701Z,62.52441406
2022-08-01T05:34:30.475Z,62.62207031
2022-08-01T05:35:48.497Z,62.71972656
2022-08-01T05:36:32.010Z,62.32299805
2022-08-01T05:38:03.200Z,62.12158203
2022-08-01T05:39:03.937Z,62.12158203
2022-08-01T05:40:04.701Z,61.9934082
2022-08-01T05:41:05.519Z,61.72485352
2022-08-01T05:42:07.378Z,61.49291992
2022-08-01T05:43:07.775Z,61.72485352
2022-08-01T05:44:08.565Z,61.79199219
2022-08-01T05:45:09.334Z,60.99243164
2022-08-01T05:46:10.133Z,60.99243164
2022-08-01T05:47:10.826Z,60.99243164
2022-08-01T05:48:11.617Z,61.19384766
2022-08-01T05:49:12.509Z,61.32202148
2022-08-01T05:50:13.206Z,60.89477539
2022-08-01T05:51:13.970Z,60.89477539
2022-08-01T05:52:15.456Z,60.89477539
2022-08-01T05:53:16.193Z,60.89477539
2022-08-01T05:54:16.962Z,60.89477539
2022-08-01T05:55:17.733Z,60.99243164
2022-08-01T05:56:18.538Z,61.29150391
2022-08-01T05:57:19.300Z,61.49291992
2022-08-01T05:58:20.076Z,61.69433594
2022-08-01T05:59:20.887Z,61.49291992
2022-08-01T06:00:22.455Z,61.69433594
2022-08-01T06:01:23.239Z,61.69433594
2022-08-01T06:02:25.130Z,61.59057617
2022-08-01T06:03:25.697Z,61.09008789
2022-08-01T06:04:26.497Z,60.99243164
2022-08-01T06:05:27.963Z,61.09008789
2022-08-01T06:06:28.745Z,60.99243164
2022-08-01T06:07:29.474Z,61.09008789
2022-08-01T06:08:30.268Z,61.19384766
2022-08-01T06:09:31.098Z,61.29150391
2022-08-01T06:10:32.299Z,61.59057617
2022-08-01T06:12:04.574Z,61.69433594
2022-08-01T06:13:04.857Z,61.59057617
2022-08-01T06:14:05.612Z,61.26098633
2022-08-01T06:15:06.389Z,61.16333008
2022-08-01T06:16:07.190Z,60.96191406
2022-08-01T06:17:08.585Z,61.16333008
2022-08-01T06:18:09.407Z,61.36474609
2022-08-01T06:19:10.186Z,61.36474609
2022-08-01T06:20:10.956Z,61.26098633
2022-08-01T06:21:11.710Z,61.16333008
2022-08-01T06:22:13.103Z,61.56616211
2022-08-01T06:23:32.288Z,61.76147461
2022-08-01T06:24:14.613Z,61.86523438
2022-08-01T06:25:18.375Z,61.86523438
2022-08-01T06:26:16.200Z,61.1328125
2022-08-01T06:27:22.230Z,60.6628418
2022-08-01T06:28:17.768Z,60.46142578
2022-08-01T06:29:18.558Z,59.96704102
2022-08-01T06:30:19.370Z,60.06469727
2022-08-01T06:31:20.106Z,60.16235352
2022-08-01T06:32:27.543Z,60.2355957
2022-08-01T06:33:23.073Z,60.33325195
2022-08-01T06:34:23.862Z,60.43701172
2022-08-01T06:35:24.645Z,60.43701172
2022-08-01T06:36:25.412Z,60.33325195
2022-08-01T06:37:26.240Z,60.13793945
2022-08-01T06:38:26.941Z,60.33325195
2022-08-01T06:39:27.762Z,60.33325195
2022-08-01T06:40:28.527Z,60.33325195
2022-08-01T06:41:29.301Z,59.93652344
2022-08-01T06:42:31.001Z,59.63745117
2022-08-01T06:44:02.533Z,59.30786133
2022-08-01T06:45:03.273Z,59.50927734
2022-08-01T06:46:04.069Z,59.50927734
2022-08-01T06:47:05.581Z,59.40551758
2022-08-01T06:48:06.370Z,59.50927734
2022-08-01T06:49:07.147Z,60.00366211
2022-08-01T06:50:09.759Z,60.80322266
2022-08-01T06:51:09.356Z,60.70556641
2022-08-01T06:52:10.781Z,60.20507813
2022-08-01T06:53:11.645Z,60.20507813
2022-08-01T06:54:12.334Z,60.00366211
2022-08-01T06:55:13.116Z,60.00366211
2022-08-01T06:56:13.863Z,60.00366211
2022-08-01T06:57:14.644Z,60.10742188
2022-08-01T06:58:15.512Z,60.10742188
2022-08-01T06:59:16.300Z,60.0769043
2022-08-01T07:00:17.083Z,58.88061523
2022-08-01T07:01:17.873Z,59.1796875
2022-08-01T07:02:19.121Z,59.38110352
2022-08-01T07:03:20.491Z,59.70458984
2022-08-01T07:04:21.284Z,59.90600586
2022-08-01T07:05:22.558Z,59.97924805
2022-08-01T07:06:23.277Z,60.0769043
2022-08-01T07:07:24.040Z,60.37597656
2022-08-01T07:08:24.904Z,60.37597656
2022-08-01T07:09:26.611Z,59.87548828
2022-08-01T07:10:27.365Z,59.87548828
2022-08-01T07:11:28.142Z,59.87548828
2022-08-01T07:12:29.574Z,59.6496582
2022-08-01T07:13:43.962Z,59.94873047
2022-08-01T07:14:31.669Z,59.55200195
2022-08-01T07:16:02.856Z,58.85009766
2022-08-01T07:17:03.668Z,58.85009766
2022-08-01T07:18:04.470Z,59.05151367
2022-08-01T07:19:05.364Z,58.85009766
2022-08-01T07:20:06.424Z,58.75244141
2022-08-01T07:21:07.059Z,59.05151367
2022-08-01T07:22:08.857Z,59.35058594
2022-08-01T07:23:09.384Z,58.82568359
2022-08-01T07:24:13.606Z,58.95385742
2022-08-01T07:25:12.216Z,58.92333984
2022-08-01T07:26:12.994Z,59.02099609
2022-08-01T07:27:23.768Z,59.22241211
2022-08-01T07:28:14.619Z,59.82055664
2022-08-01T07:29:15.512Z,58.92333984
2022-08-01T07:30:16.394Z,59.42382813
2022-08-01T07:31:17.200Z,59.42382813
2022-08-01T07:32:18.598Z,59.32006836
2022-08-01T07:33:20.073Z,58.82568359
2022-08-01T07:34:20.913Z,59.12475586
2022-08-01T07:35:22.750Z,59.42382813
2022-08-01T07:36:23.428Z,59.22241211
2022-08-01T07:37:46.288Z,59.12475586
2022-08-01T07:38:24.996Z,59.12475586
2022-08-01T07:39:25.930Z,59.32006836
2022-08-01T07:40:26.722Z,59.52148438
2022-08-01T07:41:45.508Z,58.79516602
2022-08-01T07:42:29.123Z,58.49609375
2022-08-01T07:43:29.898Z,58.49609375
2022-08-01T07:44:30.777Z,58.49609375
2022-08-01T07:46:01.971Z,58.59375
2022-08-01T07:47:02.804Z,58.59375
2022-08-01T07:48:03.523Z,58.99658203
2022-08-01T07:49:04.385Z,58.89282227
2022-08-01T07:50:05.182Z,58.89282227
2022-08-01T07:51:06.021Z,58.99658203
2022-08-01T07:52:07.600Z,59.19189453
2022-08-01T07:53:08.329Z,59.19189453
2022-08-01T07:54:09.604Z,58.59375
2022-08-01T07:55:10.586Z,58.49609375
2022-08-01T07:56:11.608Z,58.09936523
2022-08-01T07:57:12.452Z,57.89794922
2022-08-01T07:58:13.255Z,57.5012207
2022-08-01T07:59:14.067Z,57.00073242
2022-08-01T08:00:14.933Z,56.97631836
2022-08-01T08:01:16.562Z,56.97631836
2022-08-01T08:02:17.481Z,56.87255859
2022-08-01T08:03:18.951Z,56.77490234
2022-08-01T08:04:19.793Z,57.07397461
2022-08-01T08:05:57.905Z,56.87255859
2022-08-01T08:06:21.619Z,56.87255859
2022-08-01T08:07:22.288Z,57.27539063
2022-08-01T08:08:23.066Z,57.37304688
2022-08-01T08:09:23.911Z,58.27026367
2022-08-01T08:10:24.743Z,58.06884766
2022-08-01T08:11:26.123Z,58.06884766
2022-08-01T08:12:28.656Z,57.07397461
2022-08-01T08:13:28.509Z,56.47583008
2022-08-01T08:14:32.843Z,55.98144531
2022-08-01T08:15:30.162Z,56.15234375
2022-08-01T08:17:01.838Z,56.45141602
2022-08-01T08:18:02.705Z,56.34765625
2022-08-01T08:19:03.461Z,56.15234375
2022-08-01T08:20:04.249Z,56.15234375
2022-08-01T08:21:06.907Z,56.15234375
2022-08-01T08:22:06.430Z,55.95092773
2022-08-01T08:23:07.587Z,55.85327148
2022-08-01T08:24:08.437Z,56.25
2022-08-01T08:25:09.219Z,56.34765625
2022-08-01T08:26:10.073Z,55.95092773
2022-08-01T08:27:10.913Z,54.85839844
2022-08-01T08:28:11.754Z,54.45556641
2022-08-01T08:29:12.553Z,54.55932617
2022-08-01T08:30:13.280Z,54.05883789
2022-08-01T08:31:25.285Z,54.03442383
2022-08-01T08:32:14.999Z,54.23583984
2022-08-01T08:33:16.553Z,54.23583984
2022-08-01T08:34:17.379Z,54.63256836
2022-08-01T08:35:23.122Z,54.73022461
2022-08-01T08:36:19.538Z,54.13208008
2022-08-01T08:37:20.626Z,53.63769531
2022-08-01T08:38:21.218Z,52.74047852
2022-08-01T08:39:21.999Z,52.94189453
2022-08-01T08:40:22.729Z,53.03955078
2022-08-01T08:41:23.587Z,53.4362793
2022-08-01T08:42:24.405Z,52.74047852
2022-08-01T08:43:26.247Z,52.74047852
2022-08-01T08:44:27.031Z,53.13720703
2022-08-01T08:45:52.193Z,52.34375
2022-08-01T08:46:28.573Z,52.64282227
2022-08-01T08:47:29.384Z,52.83813477
2022-08-01T08:48:31.622Z,52.51464844
2022-08-01T08:50:02.791Z,52.91137695
2022-08-01T08:51:03.567Z,52.31933594
2022-08-01T08:52:04.858Z,52.21557617
2022-08-01T08:53:06.606Z,52.21557617
2022-08-01T08:54:06.948Z,52.41699219
2022-08-01T08:55:07.681Z,52.41699219
2022-08-01T08:56:08.521Z,52.8137207
2022-08-01T08:57:09.400Z,52.41699219
2022-08-01T08:58:10.174Z,52.31933594
2022-08-01T08:59:11.006Z,51.72119141
2022-08-01T09:00:12.109Z,51.42211914
2022-08-01T09:01:12.835Z,51.22070313
2022-08-01T09:02:14.260Z,51.32446289
2022-08-01T09:03:15.828Z,51.49536133
2022-08-01T09:04:16.653Z,51.19628906
2022-08-01T09:05:19.528Z,50.79956055
2022-08-01T09:06:18.231Z,50.7019043
2022-08-01T09:07:19.107Z,50.50048828
2022-08-01T09:08:19.903Z,50.30517578
2022-08-01T09:09:20.803Z,50.50048828
2022-08-01T09:10:22.180Z,50.79956055
2022-08-01T09:11:23.357Z,51.09863281
2022-08-01T09:12:23.774Z,51.09863281
2022-08-01T09:13:25.129Z,50.90332031
2022-08-01T09:14:26.005Z,51.09863281
2022-08-01T09:15:26.801Z,51.39770508
2022-08-01T09:16:27.556Z,51.49536133
2022-08-01T09:17:28.359Z,51.56860352
2022-08-01T09:18:29.165Z,51.37329102
2022-08-01T09:19:40.171Z,51.86767578
2022-08-01T09:21:01.706Z,52.2644043
2022-08-01T09:22:02.524Z,52.76489258
2022-08-01T09:23:04.333Z,52.96020508
2022-08-01T09:24:05.004Z,52.96020508
2022-08-01T09:25:05.911Z,52.66723633
2022-08-01T09:26:06.672Z,53.06396484
2022-08-01T09:27:07.422Z,52.66723633
2022-08-01T09:28:08.256Z,52.56347656
2022-08-01T09:29:10.385Z,52.76489258
2022-08-01T09:30:09.925Z,52.36816406
2022-08-01T09:31:11.681Z,52.76489258
2022-08-01T09:32:16.146Z,52.0690918
2022-08-01T09:33:18.088Z,51.97143555
2022-08-01T09:34:14.981Z,52.16674805
2022-08-01T09:35:15.798Z,51.86767578
2022-08-01T09:36:16.566Z,51.64794922
2022-08-01T09:37:18.092Z,51.14746094
2022-08-01T09:38:19.155Z,51.14746094
2022-08-01T09:39:19.670Z,51.04980469
2022-08-01T09:40:20.490Z,50.95214844
2022-08-01T09:41:21.335Z,50.35400391
2022-08-01T09:42:29.203Z,50.85449219
2022-08-01T09:43:23.690Z,48.86474609
2022-08-01T09:44:39.925Z,48.07128906
2022-08-01T09:45:26.224Z,48.07128906
2022-08-01T09:46:28.519Z,47.07641602
2022-08-01T09:47:27.583Z,47.86987305
2022-08-01T09:48:29.676Z,48.07128906
2022-08-01T09:49:29.216Z,47.97363281
2022-08-01T09:51:07.169Z,47.7722168
2022-08-01T09:52:01.802Z,47.57080078
2022-08-01T09:53:02.545Z,47.47314453
2022-08-01T09:54:04.051Z,47.74780273
2022-08-01T09:55:04.877Z,47.65014648
2022-08-01T09:56:05.674Z,48.14453125
2022-08-01T09:57:07.539Z,46.65527344
2022-08-01T09:58:07.845Z,46.65527344
2022-08-01T09:59:08.691Z,46.36230469
2022-08-01T10:00:09.968Z,46.25854492
2022-08-01T10:01:10.332Z,47.05200195
2022-08-01T10:02:11.102Z,46.9543457
2022-08-01T10:03:12.173Z,45.36743164
2022-08-01T10:04:13.541Z,45.66650391
2022-08-01T10:05:18.855Z,45.95947266
2022-08-01T10:06:15.148Z,46.16088867
2022-08-01T10:07:15.942Z,45.66650391
2022-08-01T10:08:16.638Z,45.86181641
2022-08-01T10:09:17.431Z,46.06323242
2022-08-01T10:10:18.230Z,46.85668945
2022-08-01T10:11:19.032Z,46.92993164
2022-08-01T10:12:19.763Z,46.53320313
2022-08-01T10:13:21.128Z,46.43554688
2022-08-01T10:14:22.037Z,47.62573242
2022-08-01T10:15:22.828Z,47.32666016
2022-08-01T10:16:23.642Z,46.92993164
2022-08-01T10:17:24.438Z,47.22900391
2022-08-01T10:18:26.316Z,47.22900391
2022-08-01T10:19:29.040Z,47.43041992
2022-08-01T10:20:30.417Z,47.32666016
2022-08-01T10:21:56.899Z,46.83227539
2022-08-01T10:22:29.752Z,47.52807617
2022-08-01T10:24:03.282Z,47.22900391
2022-08-01T10:25:02.366Z,46.24023438
2022-08-01T10:26:03.165Z,45.94116211
2022-08-01T10:27:05.910Z,46.33789063
2022-08-01T10:28:04.760Z,46.03881836
2022-08-01T10:29:05.529Z,45.73974609
2022-08-01T10:30:15.457Z,46.11816406
2022-08-01T10:31:12.446Z,46.02050781
2022-08-01T10:32:08.959Z,45.42236328
2022-08-01T10:33:09.802Z,45.91674805
2022-08-01T10:34:11.712Z,45.91674805
2022-08-01T10:35:15.312Z,46.51489258
2022-08-01T10:36:13.500Z,46.11816406
2022-08-01T10:37:14.251Z,45.22705078
2022-08-01T10:38:15.646Z,44.62890625
2022-08-01T10:39:19.995Z,44.43359375
2022-08-01T10:40:29.909Z,44.62890625
2022-08-01T10:41:18.043Z,44.32983398
2022-08-01T10:42:18.841Z,44.23217773
2022-08-01T10:43:21.623Z,44.32983398
2022-08-01T10:44:21.045Z,44.62890625
2022-08-01T10:45:21.951Z,45.12329102
2022-08-01T10:46:22.768Z,45.6237793
2022-08-01T10:47:26.222Z,45.59936523
2022-08-01T10:48:24.543Z,45.99609375
2022-08-01T10:49:25.187Z,45.99609375
2022-08-01T10:50:26.413Z,45.69702148
2022-08-01T10:51:51.442Z,44.60449219
2022-08-01T10:52:28.695Z,43.31665039
2022-08-01T10:54:00.767Z,43.42041016
2022-08-01T10:55:01.555Z,43.61572266
2022-08-01T10:56:03.123Z,44.60449219
2022-08-01T10:57:03.832Z,44.21386719
2022-08-01T10:58:03.984Z,44.11010742
2022-08-01T10:59:06.231Z,44.11010742
2022-08-01T11:00:05.598Z,44.11010742
2022-08-01T11:01:06.499Z,44.31152344
2022-08-01T11:02:07.243Z,44.31152344
2022-08-01T11:03:07.969Z,44.60449219
2022-08-01T11:04:13.946Z,45.0012207
2022-08-01T11:05:11.166Z,44.31152344
2022-08-01T11:06:12.251Z,44.28710938
2022-08-01T11:07:13.058Z,44.48852539
2022-08-01T11:08:13.774Z,44.58618164
2022-08-01T11:09:16.387Z,44.48852539
2022-08-01T11:10:15.302Z,43.99414063